Time;durP1;ratioP1;P1;durP2;ratioP2;P2;SDS_P1;SDS_P2;PMS_P1;PMS_P2;Temp;Humidity;BMP_temperature;BMP_pressure;BME280_temperature;BME280_humidity;BME280_pressure;Samples;Min_cycle;Max_cycle;Signal;HPM_P1;HPM_P2
2023/01/08 00:00:57;;;;;;;10.30;7.10;;;;;;;9.59;69.56;100007.81;4190383;28;20037;-68
2023/01/08 00:03:00;;;;;;;10.75;7.38;;;;;;;9.61;69.66;100006.97;4198541;28;20523;-68
2023/01/08 00:05:04;;;;;;;9.65;7.40;;;;;;;9.68;69.49;100014.81;4186321;28;20037;-68
2023/01/08 00:07:06;;;;;;;10.63;6.35;;;;;;;9.68;69.71;100010.53;4189351;28;20491;-68
2023/01/08 00:09:09;;;;;;;12.10;6.75;;;;;;;9.75;69.37;100011.44;4190153;28;20136;-68
2023/01/08 00:11:13;;;;;;;9.27;6.85;;;;;;;9.75;69.11;100007.13;4179661;28;20044;-68
2023/01/08 00:13:15;;;;;;;9.27;6.80;;;;;;;9.72;69.72;100007.06;4196183;28;20043;-68
2023/01/08 00:15:20;;;;;;;10.70;7.03;;;;;;;9.71;69.90;100005.38;4196990;28;20036;-68
2023/01/08 00:17:22;;;;;;;9.82;7.07;;;;;;;9.69;69.38;100001.88;4196999;28;20032;-68
2023/01/08 00:19:25;;;;;;;9.18;6.57;;;;;;;9.64;70.12;99990.56;4195782;28;20032;-68
2023/01/08 00:21:29;;;;;;;11.73;7.47;;;;;;;9.65;69.80;99988.84;4197181;28;20090;-69
2023/01/08 00:23:33;;;;;;;8.93;6.18;;;;;;;9.65;69.90;99989.72;4193541;28;20079;-68
2023/01/08 00:25:35;;;;;;;9.70;5.68;;;;;;;9.65;70.32;99983.66;4197722;28;20107;-68
2023/01/08 00:27:38;;;;;;;8.60;5.75;;;;;;;9.65;69.64;99981.06;4188366;28;20063;-68
2023/01/08 00:29:41;;;;;;;11.48;6.47;;;;;;;9.64;70.14;99972.41;4196724;28;20321;-68
2023/01/08 00:31:45;;;;;;;9.05;5.80;;;;;;;9.61;70.34;99970.66;4197342;28;20040;-68
2023/01/08 00:33:48;;;;;;;8.48;5.88;;;;;;;9.61;69.49;99955.06;4195893;28;20070;-68
2023/01/08 00:35:51;;;;;;;9.60;5.80;;;;;;;9.63;69.65;99949.03;4194870;28;20044;-68
2023/01/08 00:37:54;;;;;;;8.95;5.90;;;;;;;9.61;69.65;99962.00;4196858;28;20048;-68
2023/01/08 00:39:56;;;;;;;8.15;4.75;;;;;;;9.58;69.70;99962.84;4196317;28;20040;-68
2023/01/08 00:41:59;;;;;;;9.13;6.20;;;;;;;9.56;69.67;99966.25;4196293;28;20437;-68
2023/01/08 00:44:02;;;;;;;8.50;5.25;;;;;;;9.56;70.09;99963.66;4178802;28;20045;-68
2023/01/08 00:46:06;;;;;;;8.30;5.43;;;;;;;9.56;69.61;99953.28;4193358;28;20049;-68
2023/01/08 00:48:10;;;;;;;8.02;5.55;;;;;;;9.58;69.57;99961.97;4196693;28;21006;-68
2023/01/08 00:50:13;;;;;;;8.32;5.35;;;;;;;9.55;69.23;99967.09;4197111;28;20033;-68
2023/01/08 00:52:16;;;;;;;7.57;4.47;;;;;;;9.58;69.20;99969.75;4193637;28;20040;-68
2023/01/08 00:54:19;;;;;;;11.15;5.22;;;;;;;9.63;69.06;99970.66;4184637;28;20059;-68
2023/01/08 00:56:22;;;;;;;10.35;5.65;;;;;;;9.61;69.24;99972.38;4191270;28;20048;-69
2023/01/08 00:58:24;;;;;;;7.22;4.88;;;;;;;9.64;69.14;99959.44;4178764;28;20436;-68
2023/01/08 01:00:27;;;;;;;9.10;5.28;;;;;;;9.64;69.06;99956.84;4194535;28;20046;-68
2023/01/08 01:02:30;;;;;;;8.43;5.47;;;;;;;9.62;68.90;99953.34;4194936;28;20044;-68
2023/01/08 01:04:34;;;;;;;10.32;6.00;;;;;;;9.70;69.12;99933.53;4196000;28;20036;-68
2023/01/08 01:06:37;;;;;;;7.75;5.55;;;;;;;9.70;68.97;99936.13;4196697;28;20060;-68
2023/01/08 01:08:43;;;;;;;7.57;5.20;;;;;;;9.69;69.46;99933.53;4196021;28;20086;-68
2023/01/08 01:10:45;;;;;;;8.63;6.07;;;;;;;9.65;68.97;99932.63;4192781;28;20037;-68
2023/01/08 01:12:48;;;;;;;7.53;5.10;;;;;;;9.64;69.33;99936.06;4196354;28;20029;-68
2023/01/08 01:14:51;;;;;;;7.18;4.80;;;;;;;9.63;68.86;99936.91;4191782;28;20036;-68
2023/01/08 01:16:54;;;;;;;7.65;4.90;;;;;;;9.65;69.06;99949.91;4191906;28;20043;-67
2023/01/08 01:18:57;;;;;;;7.97;5.43;;;;;;;9.65;69.46;99947.31;4188885;28;20037;-68
2023/01/08 01:21:01;;;;;;;7.75;4.90;;;;;;;9.66;69.23;99951.66;4194733;28;20054;-68
2023/01/08 01:23:04;;;;;;;7.80;5.43;;;;;;;9.63;69.32;99949.91;4191510;28;20087;-68
2023/01/08 01:25:08;;;;;;;8.55;5.00;;;;;;;9.60;70.07;99957.66;4195317;28;20040;-68
2023/01/08 01:27:11;;;;;;;9.05;5.57;;;;;;;9.56;70.05;99958.47;4194572;28;20028;-68
2023/01/08 01:29:14;;;;;;;9.43;6.07;;;;;;;9.52;70.35;99960.19;4173050;28;20045;-68
2023/01/08 01:31:17;;;;;;;9.27;5.65;;;;;;;9.53;70.42;99964.50;4195439;28;20411;-68
2023/01/08 01:33:20;;;;;;;10.95;6.03;;;;;;;9.54;70.66;99962.78;4194022;28;20028;-68
2023/01/08 01:35:23;;;;;;;7.85;5.70;;;;;;;9.59;70.55;99963.69;4193633;28;20041;-68
2023/01/08 01:37:28;;;;;;;7.55;5.10;;;;;;;9.57;70.86;99966.28;4195714;28;20060;-67
2023/01/08 01:39:30;;;;;;;8.80;6.30;;;;;;;9.55;70.92;99967.09;4195956;28;20098;-68
2023/01/08 01:41:38;;;;;;;7.60;4.30;;;;;;;9.56;71.07;99958.47;4178390;28;20048;-68
2023/01/08 01:43:42;;;;;;;10.00;5.55;;;;;;;9.54;71.07;99962.78;4193797;28;20052;-68
2023/01/08 01:45:45;;;;;;;8.45;5.85;;;;;;;9.54;71.39;99965.38;4194551;28;20036;-68
2023/01/08 01:47:53;;;;;;;10.43;6.55;;;;;;;9.56;71.06;99959.38;4196477;28;20517;-68
2023/01/08 01:50:00;;;;;;;8.93;5.65;;;;;;;9.49;71.55;99962.75;4194211;28;20063;-68
2023/01/08 01:52:07;;;;;;;8.88;5.63;;;;;;;9.43;71.55;99963.56;4195820;28;20090;-68
2023/01/08 01:54:12;;;;;;;8.82;5.70;;;;;;;9.41;71.63;99949.66;4193544;28;20040;-67
2023/01/08 01:56:16;;;;;;;8.85;5.80;;;;;;;9.38;71.67;99954.84;4194628;28;20040;-68
2023/01/08 01:58:23;;;;;;;7.90;5.40;;;;;;;9.37;71.98;99947.91;4195703;28;20041;-68
2023/01/08 02:00:27;;;;;;;14.50;7.20;;;;;;;9.38;72.50;99944.47;4195554;28;20040;-68
2023/01/08 02:02:31;;;;;;;8.95;5.45;;;;;;;9.40;72.57;99934.09;4192308;28;20041;-68
2023/01/08 02:04:34;;;;;;;8.13;5.70;;;;;;;9.33;72.90;99933.19;4193600;28;20040;-68
2023/01/08 02:06:42;;;;;;;7.13;4.90;;;;;;;9.37;72.35;99934.91;4185155;28;20376;-68
2023/01/08 02:08:55;;;;;;;8.95;5.07;;;;;;;9.34;72.37;99927.13;4196308;28;20486;-68
2023/01/08 02:11:08;;;;;;;7.85;5.75;;;;;;;9.31;72.83;99929.69;4194629;28;20036;-68
2023/01/08 02:13:19;;;;;;;9.73;5.82;;;;;;;9.24;73.26;99933.94;4190277;28;20546;-68
2023/01/08 02:15:27;;;;;;;8.13;5.20;;;;;;;9.26;73.58;99928.78;4187662;28;20124;-68
2023/01/08 02:17:39;;;;;;;7.45;4.85;;;;;;;9.24;73.67;99930.47;4195969;28;20071;-68
2023/01/08 02:19:45;;;;;;;8.57;5.47;;;;;;;9.26;73.61;99926.19;4194400;28;20032;-67
2023/01/08 02:21:58;;;;;;;7.68;5.15;;;;;;;9.27;73.22;99925.31;4193485;28;20040;-68
2023/01/08 02:24:13;;;;;;;9.50;6.07;;;;;;;9.31;73.36;99924.50;4195151;28;20047;-68
2023/01/08 02:26:21;;;;;;;7.72;4.97;;;;;;;9.30;73.63;99929.66;4194835;28;20044;-68
2023/01/08 02:28:26;;;;;;;8.30;5.50;;;;;;;9.27;73.60;99920.13;4177614;28;20045;-68
2023/01/08 02:30:29;;;;;;;;;;;;;;;9.20;73.83;99914.00;4195708;28;20041;-68
2023/01/08 02:32:36;;;;;;;8.10;4.82;;;;;;;9.20;74.13;99923.50;4191778;28;20015;-68
2023/01/08 02:34:39;;;;;;;7.13;5.13;;;;;;;9.21;73.84;99922.66;4194689;28;20044;-68
2023/01/08 02:36:45;;;;;;;7.80;5.15;;;;;;;9.26;73.91;99926.19;4188562;28;20066;-68
2023/01/08 02:39:00;;;;;;;8.07;5.53;;;;;;;9.28;73.76;99927.06;4194233;28;20040;-68
2023/01/08 02:41:07;;;;;;;9.10;5.70;;;;;;;9.28;73.69;99923.59;4205907;28;20049;-68
2023/01/08 02:43:17;;;;;;;8.00;5.18;;;;;;;9.30;73.80;99917.59;4189880;28;20060;-68
2023/01/08 02:45:28;;;;;;;8.52;5.00;;;;;;;9.28;73.73;99916.69;4192699;28;20045;-68
2023/01/08 02:47:35;;;;;;;7.68;5.47;;;;;;;9.28;73.71;99914.09;4192658;28;20032;-68
2023/01/08 02:49:42;;;;;;;8.25;5.05;;;;;;;9.30;73.57;99909.81;4194778;28;20047;-68
2023/01/08 02:51:49;;;;;;;8.77;6.00;;;;;;;9.27;73.61;99899.38;4193165;28;20094;-68
2023/01/08 02:53:57;;;;;;;9.00;4.80;;;;;;;9.29;74.11;99897.69;4188090;28;20449;-68
2023/01/08 02:56:04;;;;;;;8.68;5.47;;;;;;;9.25;73.63;99891.56;4189003;28;20072;-68
2023/01/08 02:58:07;;;;;;;8.35;6.10;;;;;;;9.26;73.90;99884.69;4190057;28;20398;-68
2023/01/08 03:00:13;;;;;;;8.02;5.35;;;;;;;9.26;73.88;99882.94;4190432;28;20074;-68
2023/01/08 03:02:17;;;;;;;8.30;5.65;;;;;;;9.25;74.04;99875.16;4194550;28;20036;-68
2023/01/08 03:04:23;;;;;;;7.75;5.03;;;;;;;9.29;74.00;99873.44;4193602;28;20036;-68
2023/01/08 03:06:27;;;;;;;7.90;5.55;;;;;;;9.29;73.51;99870.84;4187241;28;20032;-68
2023/01/08 03:08:34;;;;;;;8.00;4.82;;;;;;;9.30;73.50;99867.41;4194752;28;20040;-68
2023/01/08 03:10:41;;;;;;;7.63;5.13;;;;;;;9.28;73.75;99849.25;4188403;28;20087;-68
2023/01/08 03:12:51;;;;;;;8.60;6.10;;;;;;;9.37;73.40;99833.75;4190415;28;20063;-68
2023/01/08 03:14:59;;;;;;;7.55;5.72;;;;;;;9.32;73.34;99839.78;4188683;28;20040;-68
2023/01/08 03:17:07;;;;;;;7.38;5.28;;;;;;;9.29;73.55;99847.50;4191987;28;20043;-67
2023/01/08 03:19:15;;;;;;;8.73;5.90;;;;;;;9.26;73.84;99843.19;4189940;28;20048;-68
2023/01/08 03:21:20;;;;;;;6.43;5.00;;;;;;;9.22;73.83;99844.00;4195120;28;20652;-67
2023/01/08 03:23:25;;;;;;;8.35;5.47;;;;;;;9.18;74.34;99840.50;4191447;28;20029;-68
2023/01/08 03:25:30;;;;;;;7.45;4.88;;;;;;;9.07;75.02;99840.41;4196602;28;20044;-68
2023/01/08 03:27:34;;;;;;;6.68;4.78;;;;;;;9.02;75.14;99839.50;4191114;28;20047;-68
2023/01/08 03:29:39;;;;;;;;;;;;;;;8.92;75.72;99835.03;4175831;28;20077;-68
2023/01/08 03:31:44;;;;;;;8.82;6.05;;;;;;;8.95;75.52;99848.06;4196271;28;20023;-68
2023/01/08 03:33:49;;;;;;;7.30;4.30;;;;;;;9.01;75.75;99849.81;4196738;28;20127;-68
2023/01/08 03:35:56;;;;;;;7.20;4.82;;;;;;;9.02;75.40;99849.88;4195092;28;20098;-68
2023/01/08 03:38:05;;;;;;;8.73;6.03;;;;;;;9.09;75.15;99850.78;4195642;28;20049;-68
2023/01/08 03:40:13;;;;;;;8.70;5.70;;;;;;;8.99;74.94;99851.53;4191053;28;20041;-68
2023/01/08 03:42:19;;;;;;;10.52;5.00;;;;;;;9.05;74.82;99836.03;4196610;28;20033;-68
2023/01/08 03:44:22;;;;;;;7.53;5.15;;;;;;;9.02;75.04;99842.09;4198062;28;20116;-68
2023/01/08 03:46:30;;;;;;;7.40;5.03;;;;;;;9.07;74.90;99840.41;4195613;28;20402;-68
2023/01/08 03:48:36;;;;;;;8.15;5.60;;;;;;;9.08;74.52;99842.16;4198041;28;20044;-68
2023/01/08 03:50:40;;;;;;;6.60;4.90;;;;;;;9.12;74.36;99830.06;4190249;28;20047;-68
2023/01/08 03:52:43;;;;;;;8.80;6.20;;;;;;;9.09;74.17;99827.44;4197266;28;20037;-68
2023/01/08 03:54:46;;;;;;;8.02;5.45;;;;;;;9.17;74.41;99833.59;4190944;28;20106;-68
2023/01/08 03:56:49;;;;;;;7.22;4.78;;;;;;;9.15;73.75;99834.41;4190239;28;20107;-68
2023/01/08 03:58:52;;;;;;;8.48;5.32;;;;;;;9.10;74.01;99826.59;4194387;28;20036;-68
2023/01/08 04:00:55;;;;;;;7.75;5.43;;;;;;;9.07;74.18;99835.22;4197415;28;20509;-68
2023/01/08 04:02:57;;;;;;;7.60;5.18;;;;;;;9.15;74.00;99826.63;4196781;28;20479;-69
2023/01/08 04:05:00;;;;;;;8.63;5.53;;;;;;;9.17;73.39;99819.72;4189719;28;20048;-68
2023/01/08 04:07:04;;;;;;;7.82;5.43;;;;;;;9.14;73.57;99825.78;4197314;28;20044;-68
2023/01/08 04:09:07;;;;;;;8.20;4.28;;;;;;;9.04;73.78;99822.22;4193186;28;20449;-68
2023/01/08 04:11:10;;;;;;;7.13;5.00;;;;;;;9.05;74.25;99825.66;4196619;28;20037;-68
2023/01/08 04:13:13;;;;;;;6.90;4.85;;;;;;;9.07;74.06;99822.25;4195290;28;20032;-68
2023/01/08 04:15:16;;;;;;;8.93;5.47;;;;;;;9.02;74.36;99821.34;4195678;28;20086;-68
2023/01/08 04:17:19;;;;;;;8.18;5.68;;;;;;;9.04;74.12;99814.44;4196995;28;20107;-68
2023/01/08 04:19:22;;;;;;;8.88;6.18;;;;;;;9.14;74.19;99822.31;4196342;28;20041;-68
2023/01/08 04:21:25;;;;;;;9.90;5.72;;;;;;;9.06;74.27;99827.41;4194453;28;20041;-68
2023/01/08 04:23:29;;;;;;;7.28;5.47;;;;;;;9.08;74.51;99826.59;4196033;28;20035;-68
2023/01/08 04:25:32;;;;;;;11.38;5.35;;;;;;;9.04;74.44;99819.63;4194297;28;20036;-68
2023/01/08 04:27:34;;;;;;;7.72;4.75;;;;;;;9.00;74.52;99820.44;4196163;28;20040;-68
2023/01/08 04:29:37;;;;;;;8.93;5.20;;;;;;;8.99;74.67;99820.44;4190688;28;20496;-68
2023/01/08 04:31:40;;;;;;;7.50;5.28;;;;;;;9.03;74.62;99817.03;4196087;28;20497;-68
2023/01/08 04:33:43;;;;;;;8.27;5.20;;;;;;;9.01;74.73;99817.00;4189668;28;20423;-68
2023/01/08 04:35:46;;;;;;;8.35;5.15;;;;;;;8.99;74.75;99823.88;4196180;28;20086;-68
2023/01/08 04:37:49;;;;;;;8.35;5.50;;;;;;;8.99;75.01;99815.25;4196796;28;20077;-68
2023/01/08 04:39:53;;;;;;;9.65;5.75;;;;;;;8.95;75.04;99824.72;4191562;28;20105;-68
2023/01/08 04:41:56;;;;;;;7.90;5.72;;;;;;;8.96;75.16;99826.44;4197059;28;20054;-68
2023/01/08 04:43:59;;;;;;;7.72;5.25;;;;;;;8.99;74.87;99826.47;4196335;28;20041;-67
2023/01/08 04:46:06;;;;;;;7.30;5.25;;;;;;;8.97;74.72;99825.59;4174062;28;20095;-68
2023/01/08 04:48:09;;;;;;;7.85;4.93;;;;;;;8.93;75.18;99826.41;4191093;28;20048;-68
2023/01/08 04:50:12;;;;;;;8.10;4.97;;;;;;;8.93;75.01;99821.22;4193067;28;20095;-69
2023/01/08 04:52:14;;;;;;;9.98;5.93;;;;;;;8.91;75.04;99825.53;4193389;28;20060;-69
2023/01/08 04:54:17;;;;;;;7.80;4.80;;;;;;;8.94;75.29;99820.38;4195775;28;20028;-68
2023/01/08 04:56:21;;;;;;;7.25;4.80;;;;;;;8.85;75.37;99813.38;4196823;28;20032;-68
2023/01/08 04:58:24;;;;;;;9.38;5.68;;;;;;;8.83;75.99;99809.03;4187397;28;20048;-69
2023/01/08 05:00:27;;;;;;;8.75;5.60;;;;;;;8.82;75.97;99815.94;4193928;28;20062;-68
2023/01/08 05:02:30;;;;;;;8.48;5.18;;;;;;;8.80;76.40;99809.00;4196730;28;20102;-69
2023/01/08 05:04:33;;;;;;;6.65;4.85;;;;;;;8.78;76.60;99815.91;4196050;28;20036;-68
2023/01/08 05:06:36;;;;;;;9.95;6.25;;;;;;;8.85;76.47;99810.78;4194811;28;20033;-69
2023/01/08 05:08:39;;;;;;;9.70;5.10;;;;;;;8.84;76.61;99819.41;4195582;28;20044;-68
2023/01/08 05:10:41;;;;;;;7.25;5.07;;;;;;;8.87;76.46;99821.19;4195789;28;20036;-69
2023/01/08 05:12:46;;;;;;;10.13;6.28;;;;;;;8.88;76.78;99817.75;4193731;28;20124;-68
2023/01/08 05:14:48;;;;;;;8.10;5.25;;;;;;;8.82;77.02;99821.13;4194403;28;20445;-69
2023/01/08 05:16:51;;;;;;;7.70;4.85;;;;;;;8.90;76.42;99816.88;4191215;28;20040;-69
2023/01/08 05:18:54;;;;;;;8.45;5.68;;;;;;;8.81;76.74;99821.97;4194100;28;20553;-68
2023/01/08 05:21:00;;;;;;;8.68;5.43;;;;;;;8.77;77.00;99827.97;4195827;28;20068;-69
2023/01/08 05:23:03;;;;;;;9.18;6.25;;;;;;;8.82;76.88;99828.91;4190127;28;20064;-68
2023/01/08 05:25:07;;;;;;;7.47;5.20;;;;;;;8.82;77.03;99828.00;4195325;28;20040;-68
2023/01/08 05:27:10;;;;;;;8.07;5.80;;;;;;;8.81;77.04;99823.72;4194952;28;20098;-68
2023/01/08 05:29:15;;;;;;;8.45;5.45;;;;;;;8.84;77.10;99810.78;4194533;28;20035;-69
2023/01/08 05:31:17;;;;;;;10.32;5.85;;;;;;;8.78;77.37;99810.72;4196197;28;20397;-68
2023/01/08 05:33:21;;;;;;;7.88;4.72;;;;;;;8.79;77.38;99810.72;4177984;28;20119;-68
2023/01/08 05:35:24;;;;;;;8.73;5.45;;;;;;;8.85;77.43;99813.38;4194351;28;20037;-68
2023/01/08 05:37:27;;;;;;;11.32;6.25;;;;;;;8.85;77.46;99813.38;4195661;28;20042;-68
2023/01/08 05:39:30;;;;;;;9.88;6.05;;;;;;;8.86;77.33;99804.75;4193873;28;20040;-68
2023/01/08 05:41:33;;;;;;;8.70;5.80;;;;;;;8.85;77.44;99804.75;4193947;28;20040;-68
2023/01/08 05:43:36;;;;;;;10.43;6.20;;;;;;;8.72;77.85;99801.16;4193162;28;20406;-67
2023/01/08 05:45:40;;;;;;;10.32;6.28;;;;;;;8.73;77.79;99806.34;4196236;28;20028;-68
2023/01/08 05:47:43;;;;;;;7.32;4.82;;;;;;;8.73;78.04;99808.06;4195753;28;20040;-68
2023/01/08 05:49:46;;;;;;;8.65;5.38;;;;;;;8.69;78.14;99807.16;4194621;28;20390;-68
2023/01/08 05:51:49;;;;;;;7.35;5.05;;;;;;;8.77;77.90;99798.59;4194131;28;20041;-68
2023/01/08 05:53:51;;;;;;;8.10;5.90;;;;;;;8.77;78.10;99796.00;4193529;28;20032;-68
2023/01/08 05:55:59;;;;;;;10.68;6.47;;;;;;;8.74;78.32;99792.50;4194385;28;20036;-68
2023/01/08 05:58:02;;;;;;;8.73;6.47;;;;;;;8.72;78.31;99791.66;4195552;28;20041;-68
2023/01/08 06:00:10;;;;;;;9.93;5.53;;;;;;;8.69;78.62;99806.31;4195438;28;20051;-68
2023/01/08 06:02:17;;;;;;;8.30;5.65;;;;;;;8.67;78.79;99797.63;4190113;28;20036;-68
2023/01/08 06:04:20;;;;;;;8.40;5.53;;;;;;;8.72;78.37;99789.06;4193550;28;20102;-70
2023/01/08 06:06:23;;;;;;;11.02;6.47;;;;;;;8.77;78.46;99788.25;4172803;28;20106;-68
2023/01/08 06:08:25;;;;;;;8.15;6.18;;;;;;;8.74;78.47;99784.75;4194355;28;20655;-67
2023/01/08 06:10:28;;;;;;;9.00;5.72;;;;;;;8.69;78.45;99782.97;4194200;28;20040;-68
2023/01/08 06:12:31;;;;;;;7.78;5.30;;;;;;;8.79;78.26;99784.81;4166923;28;20554;-68
2023/01/08 06:14:34;;;;;;;8.10;5.70;;;;;;;8.69;78.75;99789.03;4191664;28;20094;-68
2023/01/08 06:16:37;;;;;;;8.88;5.95;;;;;;;8.80;78.47;99793.44;4193323;28;20089;-68
2023/01/08 06:18:41;;;;;;;8.13;5.25;;;;;;;8.69;78.79;99790.75;4194176;28;20119;-68
2023/01/08 06:20:44;;;;;;;7.82;5.57;;;;;;;8.71;78.84;99789.03;4193999;28;20134;-68
2023/01/08 06:22:46;;;;;;;7.28;5.68;;;;;;;8.67;79.13;99793.31;4195591;28;20387;-68
2023/01/08 06:24:49;;;;;;;8.43;5.80;;;;;;;8.68;79.01;99795.03;4185361;28;20042;-67
2023/01/08 06:26:52;;;;;;;9.05;6.28;;;;;;;8.73;78.90;99793.38;4194853;28;20051;-68
2023/01/08 06:28:55;;;;;;;6.93;4.93;;;;;;;8.74;78.75;99800.28;4194516;28;20044;-67
2023/01/08 06:30:59;;;;;;;7.82;5.40;;;;;;;8.66;78.89;99801.06;4194131;28;20055;-67
2023/01/08 06:33:02;;;;;;;11.25;6.28;;;;;;;8.73;79.09;99806.34;4194347;28;20437;-67
2023/01/08 06:35:07;;;;;;;8.90;5.15;;;;;;;8.72;78.91;99807.19;4187629;28;20049;-67
2023/01/08 06:37:10;;;;;;;8.50;6.25;;;;;;;8.67;79.14;99802.81;4195805;28;20040;-67
2023/01/08 06:39:13;;;;;;;9.00;5.93;;;;;;;8.66;79.41;99809.72;4187671;28;20044;-69
2023/01/08 06:41:16;;;;;;;12.05;5.57;;;;;;;8.68;79.17;99799.38;4194685;28;20064;-69
2023/01/08 06:43:20;;;;;;;8.18;5.53;;;;;;;8.65;79.03;99802.78;4194849;28;20036;-68
2023/01/08 06:45:25;;;;;;;9.77;6.07;;;;;;;8.65;79.35;99820.94;4186622;28;20132;-69
2023/01/08 06:47:28;;;;;;;7.53;4.90;;;;;;;8.65;79.63;99820.94;4195405;28;20391;-69
2023/01/08 06:49:31;;;;;;;8.63;5.43;;;;;;;8.71;79.23;99817.53;4195536;28;20472;-69
2023/01/08 06:51:35;;;;;;;6.65;4.95;;;;;;;8.73;79.23;99818.41;4196173;28;20492;-69
2023/01/08 06:53:38;;;;;;;8.40;5.47;;;;;;;8.73;79.31;99819.31;4194045;28;20029;-69
2023/01/08 06:55:41;;;;;;;8.13;5.25;;;;;;;8.74;79.64;99815.84;4193694;28;20048;-69
2023/01/08 06:57:44;;;;;;;8.65;4.88;;;;;;;8.81;79.24;99811.59;4193711;28;20055;-69
2023/01/08 06:59:47;;;;;;;8.45;4.50;;;;;;;8.83;79.29;99809.03;4198854;28;20052;-69
2023/01/08 07:01:50;;;;;;;11.25;5.85;;;;;;;8.84;79.41;99811.63;4198148;28;20045;-69
2023/01/08 07:03:53;;;;;;;7.68;4.85;;;;;;;8.84;79.41;99805.59;4197957;28;20521;-69
2023/01/08 07:05:56;;;;;;;6.40;4.63;;;;;;;8.87;79.22;99809.06;4193543;28;20029;-69
2023/01/08 07:08:01;;;;;;;7.47;4.65;;;;;;;8.88;79.18;99815.16;4199909;28;20503;-69
2023/01/08 07:10:04;;;;;;;7.03;5.43;;;;;;;8.85;79.57;99813.38;4201532;28;20040;-69
2023/01/08 07:12:08;;;;;;;6.47;3.78;;;;;;;8.87;79.37;99816.00;4197403;28;20041;-69
2023/01/08 07:14:11;;;;;;;7.68;4.72;;;;;;;8.90;79.43;99814.28;4193171;28;20048;-69
2023/01/08 07:16:14;;;;;;;7.75;5.07;;;;;;;8.87;79.58;99822.03;4193808;28;20033;-69
2023/01/08 07:18:17;;;;;;;6.05;4.05;;;;;;;8.85;79.63;99823.75;4199772;28;20417;-69
2023/01/08 07:20:20;;;;;;;8.27;4.55;;;;;;;8.97;79.23;99823.00;4193269;28;20036;-69
2023/01/08 07:22:24;;;;;;;6.00;4.43;;;;;;;9.01;79.53;99819.59;4198332;28;20075;-69
2023/01/08 07:24:29;;;;;;;10.70;5.50;;;;;;;8.94;79.47;99819.53;4197178;28;20044;-69
2023/01/08 07:26:32;;;;;;;6.07;4.53;;;;;;;8.89;79.69;99812.56;4198376;28;20440;-69
2023/01/08 07:28:35;;;;;;;7.97;4.40;;;;;;;8.90;79.62;99810.84;4200558;28;20039;-67
2023/01/08 07:30:38;;;;;;;9.95;4.68;;;;;;;8.96;79.62;99817.81;4201146;28;20047;-67
2023/01/08 07:32:40;;;;;;;7.22;4.93;;;;;;;8.96;79.66;99815.22;4199800;28;20039;-67
2023/01/08 07:34:43;;;;;;;11.93;5.35;;;;;;;9.00;79.69;99820.44;4193952;28;20670;-67
2023/01/08 07:36:46;;;;;;;9.00;4.53;;;;;;;9.03;79.45;99819.63;4195685;28;20037;-67
2023/01/08 07:38:49;;;;;;;4.65;3.60;;;;;;;8.93;79.97;99820.38;4190294;28;20037;-68
2023/01/08 07:40:54;;;;;;;7.35;3.55;;;;;;;8.94;79.55;99817.78;4202762;28;20055;-67
2023/01/08 07:42:59;;;;;;;5.82;3.92;;;;;;;8.91;79.90;99823.81;4194594;28;20036;-67
2023/01/08 07:45:01;;;;;;;;;;;;;;;8.89;79.92;99827.22;4193536;28;20495;-67
2023/01/08 07:47:04;;;;;;;7.43;3.70;;;;;;;8.85;80.10;99828.06;4197820;28;20332;-67
2023/01/08 07:49:07;;;;;;;5.85;3.65;;;;;;;8.87;79.91;99831.53;4195353;28;20033;-68
2023/01/08 07:51:10;;;;;;;7.95;3.92;;;;;;;8.89;79.89;99830.72;4199520;28;20040;-68
2023/01/08 07:53:15;;;;;;;7.30;4.00;;;;;;;9.05;79.40;99833.44;4197005;28;20086;-66
2023/01/08 07:55:18;;;;;;;6.38;3.92;;;;;;;8.99;79.61;99838.56;4201257;28;20111;-68
2023/01/08 07:57:22;;;;;;;7.05;4.28;;;;;;;9.12;79.23;99831.81;4198166;28;20144;-69
2023/01/08 07:59:25;;;;;;;7.60;4.20;;;;;;;9.10;79.22;99831.78;4196495;28;20037;-69
2023/01/08 08:01:28;;;;;;;7.90;4.30;;;;;;;9.01;79.44;99823.91;4192731;28;20487;-69
2023/01/08 08:03:31;;;;;;;7.15;3.92;;;;;;;9.00;79.78;99814.41;4189374;28;20040;-66
2023/01/08 08:05:35;;;;;;;6.18;4.13;;;;;;;9.02;79.76;99816.16;4191530;28;20120;-67
2023/01/08 08:07:37;;;;;;;5.95;4.05;;;;;;;8.98;79.73;99813.50;4192015;28;20037;-67
2023/01/08 08:09:40;;;;;;;7.00;4.00;;;;;;;8.95;80.12;99816.06;4197579;28;20040;-67
2023/01/08 08:11:43;;;;;;;7.00;4.13;;;;;;;8.99;80.36;99817.84;4197763;28;20032;-67
2023/01/08 08:13:49;;;;;;;7.90;3.67;;;;;;;8.99;80.16;99816.09;4196844;28;20043;-67
2023/01/08 08:15:55;;;;;;;7.75;4.28;;;;;;;8.97;79.77;99812.63;4197775;28;20498;-68
2023/01/08 08:17:59;;;;;;;7.93;4.32;;;;;;;8.90;80.31;99816.88;4197453;28;20053;-67
2023/01/08 08:20:02;;;;;;;9.57;4.43;;;;;;;9.02;79.91;99821.34;4198563;28;20449;-69
2023/01/08 08:22:05;;;;;;;6.60;4.25;;;;;;;8.97;80.39;99812.63;4198443;28;20044;-67
2023/01/08 08:24:08;;;;;;;7.03;4.28;;;;;;;8.98;80.32;99808.31;4198752;28;20040;-66
2023/01/08 08:26:11;;;;;;;6.22;3.95;;;;;;;9.03;80.36;99815.28;4196726;28;20032;-67
2023/01/08 08:28:14;;;;;;;6.10;4.28;;;;;;;9.05;80.46;99810.13;4197315;28;20457;-68
2023/01/08 08:30:18;;;;;;;7.30;4.70;;;;;;;9.00;80.85;99809.22;4197369;28;20090;-69
2023/01/08 08:32:21;;;;;;;7.72;5.13;;;;;;;8.97;80.77;99806.59;4197570;28;20035;-69
2023/01/08 08:34:24;;;;;;;7.88;4.88;;;;;;;8.99;80.99;99815.25;4196582;28;20040;-69
2023/01/08 08:36:30;;;;;;;6.70;4.57;;;;;;;9.05;80.59;99808.41;4198240;28;20036;-68
2023/01/08 08:38:33;;;;;;;9.38;4.53;;;;;;;8.98;80.80;99804.00;4194000;28;20788;-64
2023/01/08 08:40:36;;;;;;;11.07;4.90;;;;;;;9.03;81.39;99807.50;4191826;28;20043;-69
2023/01/08 08:42:39;;;;;;;7.55;5.22;;;;;;;9.06;81.05;99801.50;4209103;28;20537;-69
2023/01/08 08:44:41;;;;;;;6.13;4.45;;;;;;;9.10;80.87;99808.44;4181729;28;20082;-69
2023/01/08 08:46:46;;;;;;;8.30;4.38;;;;;;;9.05;80.98;99810.13;4183252;28;20270;-70
2023/01/08 08:48:49;;;;;;;8.00;4.60;;;;;;;9.04;81.17;99804.06;4188305;28;20044;-71
2023/01/08 08:50:52;;;;;;;7.78;5.40;;;;;;;9.06;81.32;99802.34;4190229;28;20037;-70
2023/01/08 08:52:59;;;;;;;6.53;4.82;;;;;;;9.10;80.96;99800.66;4195460;28;20074;-68
2023/01/08 08:55:02;;;;;;;11.27;5.65;;;;;;;9.11;81.23;99798.94;4187521;28;20444;-69
2023/01/08 08:57:05;;;;;;;7.22;4.88;;;;;;;9.21;80.47;99803.34;4192112;28;20039;-68
2023/01/08 08:59:11;;;;;;;11.77;4.32;;;;;;;9.12;80.74;99798.94;4192007;28;20514;-68
2023/01/08 09:01:14;;;;;;;14.13;6.38;;;;;;;9.17;80.39;99789.50;4196994;28;20036;-68
2023/01/08 09:03:19;;;;;;;6.43;4.28;;;;;;;9.16;80.58;99792.94;4194446;28;20433;-68
2023/01/08 09:05:22;;;;;;;13.30;5.43;;;;;;;9.07;80.67;99792.88;4200124;28;20044;-68
2023/01/08 09:07:24;;;;;;;11.05;4.95;;;;;;;9.04;81.22;99782.47;4190099;28;20036;-68
2023/01/08 09:09:27;;;;;;;6.22;4.40;;;;;;;9.04;81.30;99788.50;4200407;28;20032;-67
2023/01/08 09:11:31;;;;;;;7.45;4.75;;;;;;;9.12;80.87;99785.13;4195744;28;20043;-68
2023/01/08 09:13:35;;;;;;;6.38;4.80;;;;;;;9.12;80.96;99780.78;4193727;28;20498;-68
2023/01/08 09:15:39;;;;;;;7.85;4.72;;;;;;;9.13;81.25;99792.91;4189411;28;20041;-68
2023/01/08 09:17:41;;;;;;;10.52;5.13;;;;;;;9.15;81.29;99792.94;4189130;28;20040;-68
2023/01/08 09:19:46;;;;;;;6.43;4.35;;;;;;;9.19;81.31;99794.69;4190905;28;20037;-68
2023/01/08 09:21:49;;;;;;;5.53;4.05;;;;;;;9.27;81.24;99798.22;4195809;28;20043;-67
2023/01/08 09:23:52;;;;;;;6.88;3.83;;;;;;;9.22;80.80;99792.13;4189163;28;20036;-67
2023/01/08 09:25:59;;;;;;;6.45;4.13;;;;;;;9.29;80.65;99793.94;4216287;28;20531;-67
2023/01/08 09:28:03;;;;;;;8.55;5.32;;;;;;;9.36;80.63;99785.34;4196055;28;20121;-67
2023/01/08 09:30:07;;;;;;;8.55;4.95;;;;;;;9.32;80.92;99799.13;4197349;28;20041;-71
2023/01/08 09:32:10;;;;;;;6.75;4.32;;;;;;;9.29;80.86;99793.03;4193229;28;20040;-70
2023/01/08 09:34:13;;;;;;;5.93;3.78;;;;;;;9.30;80.79;99793.06;4188501;28;20120;-70
2023/01/08 09:36:18;;;;;;;9.43;4.40;;;;;;;9.34;80.88;99793.97;4198927;28;20490;-70
2023/01/08 09:38:22;;;;;;;8.02;4.35;;;;;;;9.36;81.18;99790.53;4196268;28;20517;-70
2023/01/08 09:40:31;;;;;;;6.63;3.88;;;;;;;9.40;81.18;99788.81;4185956;28;20044;-70
2023/01/08 09:42:34;;;;;;;6.78;4.47;;;;;;;9.49;81.37;99778.53;4192695;28;20550;-70
2023/01/08 09:44:40;;;;;;;7.32;4.40;;;;;;;9.48;81.34;99781.97;4187776;28;20033;-70
2023/01/08 09:46:44;;;;;;;4.95;3.75;;;;;;;9.51;80.56;99787.19;4195581;28;20083;-70
2023/01/08 09:48:47;;;;;;;6.90;4.38;;;;;;;9.49;80.88;99788.91;4193925;28;20045;-67
2023/01/08 09:50:50;;;;;;;9.38;4.53;;;;;;;9.54;81.39;99783.75;4198305;28;20094;-65